Time;durP1;ratioP1;P1;durP2;ratioP2;P2;SDS_P1;SDS_P2;PMS_P1;PMS_P2;Temp;Humidity;BMP_temperature;BMP_pressure;BME280_temperature;BME280_humidity;BME280_pressure;Samples;Min_cycle;Max_cycle;Signal;HPM_P1;HPM_P2
2022/03/08 00:02:04;;;;;;;;;;;;;;;29.13;56.18;100901.38;4975706;28;65813;-41
2022/03/08 00:04:34;;;;;;;;;;;;;;;29.12;56.37;100900.53;4973214;28;69856;-40
2022/03/08 00:07:05;;;;;;;;;;;;;;;29.13;55.78;100898.66;4977072;27;65852;-40
2022/03/08 00:09:35;;;;;;;;;;;;;;;29.14;56.18;100903.00;4980516;28;69975;-41
2022/03/08 00:12:05;;;;;;;;;;;;;;;29.13;54.94;100906.78;4977924;28;65448;-39
2022/03/08 00:14:35;;;;;;;;;;;;;;;29.13;55.58;100913.00;4977072;28;70377;-39
2022/03/08 00:17:05;;;;;;;;;;;;;;;29.11;55.42;100916.94;4969693;28;67047;-40
2022/03/08 00:19:34;;;;;;;;;;;;;;;29.12;55.60;100916.75;4959943;28;70395;-39
2022/03/08 00:22:04;;;;;;;;;;;;;;;29.10;54.81;100913.41;4957878;28;66286;-39
2022/03/08 00:24:34;;;;;;;;;;;;;;;29.12;54.31;100921.31;4968688;28;70732;-45
2022/03/08 00:27:04;;;;;;;;;;;;;;;29.11;54.83;100930.44;4959876;27;66159;-38
2022/03/08 00:29:40;;;;;;;;;;;;;;;29.11;54.19;100930.44;4957531;28;69349;-38
2022/03/08 00:32:11;;;;;;;;;;;;;;;29.12;53.07;100934.81;4955670;28;66693;-38
2022/03/08 00:34:41;;;;;;;;;;;;;;;29.13;53.58;100931.91;4961801;28;69986;-41
2022/03/08 00:37:10;;;;;;;;;;;;;;;29.16;53.39;100925.25;4976092;28;65679;-40
2022/03/08 00:39:40;;;;;;;;;;;;;;;29.23;52.95;100918.00;4963777;28;69496;-42
2022/03/08 00:42:11;;;;;;;;;;;;;;;29.31;53.65;100922.34;4969679;28;66477;-42
2022/03/08 00:44:43;;;;;;;;;;;;;;;29.41;52.86;100920.06;4963574;28;70100;-41
2022/03/08 00:47:12;;;;;;;;;;;;;;;29.47;53.36;100930.00;4973782;28;65729;-41
2022/03/08 00:49:42;;;;;;;;;;;;;;;29.56;53.55;100933.31;4973730;28;68491;-41
2022/03/08 00:52:13;;;;;;;;;;;;;;;29.64;53.44;100941.25;4974327;28;65513;-41
2022/03/08 00:54:43;;;;;;;;;;;;;;;29.70;53.34;100945.84;4978721;28;69421;-41
2022/03/08 00:57:15;;;;;;;;;;;;;;;29.79;53.34;100949.16;4973875;28;65443;-41
2022/03/08 00:59:45;;;;;;;;;;;;;;;29.83;53.45;100956.59;4971449;28;69710;-42
2022/03/08 01:02:14;;;;;;;;;;;;;;;29.91;52.98;100955.56;4970923;28;66962;-41
2022/03/08 01:04:45;;;;;;;;;;;;;;;29.95;53.02;100969.47;4970831;28;70081;-40
2022/03/08 01:07:16;;;;;;;;;;;;;;;30.00;53.04;100973.19;4973969;28;65690;-40
2022/03/08 01:09:46;;;;;;;;;;;;;;;30.06;52.88;100985.06;4974446;28;68901;-40
2022/03/08 01:12:16;;;;;;;;;;;;;;;30.09;52.33;100990.06;4981745;28;66737;-41
2022/03/08 01:14:47;;;;;;;;;;;;;;;30.13;52.65;100991.28;4971093;28;71605;-40
2022/03/08 01:17:16;;;;;;;;;;;;;;;30.17;52.03;100989.84;4972666;28;66578;-41
2022/03/08 01:19:46;;;;;;;;;;;;;;;30.22;52.73;101002.72;4975073;28;70265;-41
2022/03/08 01:22:16;;;;;;;;;;;;;;;30.26;51.82;101004.81;4974407;28;66182;-41
2022/03/08 01:24:47;;;;;;;;;;;;;;;30.30;52.10;101005.22;4971904;28;69525;-41
2022/03/08 01:27:16;;;;;;;;;;;;;;;30.34;52.09;101005.59;4952562;28;65576;-41
2022/03/08 01:29:46;;;;;;;;;;;;;;;30.37;52.35;101016.00;4974918;28;69245;-40
2022/03/08 01:32:16;;;;;;;;;;;;;;;30.41;52.20;101025.38;4963462;28;66990;-41
2022/03/08 01:34:46;;;;;;;;;;;;;;;30.44;53.05;101019.53;4976269;28;70620;-41
2022/03/08 01:37:16;;;;;;;;;;;;;;;30.47;52.10;101021.78;4954651;28;66594;-40
2022/03/08 01:39:46;;;;;;;;;;;;;;;30.49;52.20;101028.66;4961692;28;69864;-41
2022/03/08 01:42:21;;;;;;;;;;;;;;;30.54;52.50;101022.63;4971437;27;65153;-41
2022/03/08 01:44:51;;;;;;;;;;;;;;;30.55;52.54;101024.25;4958792;28;69317;-40
2022/03/08 01:47:23;;;;;;;;;;;;;;;30.59;52.51;101030.94;4972597;28;66522;-41
2022/03/08 01:49:53;;;;;;;;;;;;;;;30.61;52.13;101030.69;4973011;28;69174;-41
2022/03/08 01:52:24;;;;;;;;;;;;;;;30.64;52.45;101039.22;4974755;28;67115;-42
2022/03/08 01:54:54;;;;;;;;;;;;;;;30.66;52.28;101037.13;4972950;28;69915;-42
2022/03/08 01:57:25;;;;;;;;;;;;;;;30.70;52.33;101043.78;4975614;28;66730;-41
2022/03/08 01:59:55;;;;;;;;;;;;;;;30.72;52.63;101047.09;4967627;28;69967;-41
2022/03/08 02:02:25;;;;;;;;;;;;;;;30.74;52.60;101052.31;4958746;28;65692;-41
2022/03/08 02:04:55;;;;;;;;;;;;;;;30.78;52.19;101056.22;4962222;27;70238;-40
2022/03/08 02:07:25;;;;;;;;;;;;;;;30.81;52.41;101055.00;4976235;28;66032;-42
2022/03/08 02:09:56;;;;;;;;;;;;;;;30.85;52.58;101061.66;4960959;28;69613;-41
2022/03/08 02:12:26;;;;;;;;;;;;;;;30.86;52.51;101052.47;4976787;28;66493;-42
2022/03/08 02:14:56;;;;;;;;;;;;;;;30.89;52.27;101062.88;4970477;28;70021;-42
2022/03/08 02:17:26;;;;;;;;;;;;;;;30.91;52.80;101060.78;4955497;28;65116;-40
2022/03/08 02:19:56;;;;;;;;;;;;;;;30.94;52.22;101060.34;4958039;28;70415;-41
2022/03/08 02:22:26;;;;;;;;;;;;;;;30.96;52.69;101050.16;4956280;28;67293;-41
2022/03/08 02:24:56;;;;;;;;;;;;;;;30.99;52.31;101049.72;4956865;28;69905;-41
2022/03/08 02:27:25;;;;;;;;;;;;;;;31.02;52.69;101043.03;4983892;28;65314;-41
2022/03/08 02:29:55;;;;;;;;;;;;;;;31.03;52.59;101048.22;4982888;27;70339;-41
2022/03/08 02:32:25;;;;;;;;;;;;;;;31.06;52.53;101055.91;4979650;27;66009;-42
2022/03/08 02:34:55;;;;;;;;;;;;;;;31.09;52.26;101047.38;4973560;28;70224;-42
2022/03/08 02:37:36;;;;;;;;;;;;;;;31.10;52.51;101046.31;4972718;28;66507;-42
2022/03/08 02:40:07;;;;;;;;;;;;;;;31.13;51.01;101048.56;4959922;28;69347;-40
2022/03/08 02:42:38;;;;;;;;;;;;;;;31.16;49.80;101047.31;4976025;28;65891;-42
2022/03/08 02:45:09;;;;;;;;;;;;;;;31.17;49.51;101054.38;4968073;28;69964;-42
2022/03/08 02:47:39;;;;;;;;;;;;;;;31.20;50.12;101042.28;4973889;28;66136;-46
2022/03/08 02:50:11;;;;;;;;;;;;;;;31.23;50.41;101042.69;4967861;28;70952;-42
2022/03/08 02:52:42;;;;;;;;;;;;;;;31.24;50.90;101038.91;4978017;28;66735;-41
2022/03/08 02:55:12;;;;;;;;;;;;;;;31.28;51.12;101039.31;4962100;28;69814;-43
2022/03/08 02:57:43;;;;;;;;;;;;;;;31.29;51.18;101032.84;4978183;28;66574;-42
2022/03/08 03:00:15;;;;;;;;;;;;;;;31.32;51.39;101024.28;4971883;28;69067;-42
2022/03/08 03:02:46;;;;;;;;;;;;;;;31.34;51.15;101033.00;4970627;28;66620;-41
2022/03/08 03:05:17;;;;;;;;;;;;;;;31.36;51.37;101030.94;4976273;28;70097;-42
2022/03/08 03:07:48;;;;;;;;;;;;;;;31.38;51.46;101023.44;4960666;28;65952;-42
2022/03/08 03:10:20;;;;;;;;;;;;;;;31.40;51.35;101015.91;4976982;28;68792;-42
2022/03/08 03:12:51;;;;;;;;;;;;;;;31.42;51.35;101013.78;4980688;27;67020;-44
2022/03/08 03:15:21;;;;;;;;;;;;;;;31.45;51.54;101018.75;4980006;28;69374;-44
2022/03/08 03:17:52;;;;;;;;;;;;;;;31.47;51.58;101007.72;4974787;28;65187;-51
2022/03/08 03:20:23;;;;;;;;;;;;;;;31.50;51.64;101010.81;4969234;27;69770;-42
2022/03/08 03:22:52;;;;;;;;;;;;;;;31.51;51.18;100998.94;4982319;27;66250;-42
2022/03/08 03:25:22;;;;;;;;;;;;;;;31.54;51.40;100995.78;4973816;28;70541;-43
2022/03/08 03:27:52;;;;;;;;;;;;;;;31.57;51.01;100989.91;4975123;28;66549;-41
2022/03/08 03:30:22;;;;;;;;;;;;;;;31.58;51.43;100977.97;4980963;27;70540;-42
2022/03/08 03:32:52;;;;;;;;;;;;;;;31.61;51.46;100963.97;4972333;28;66272;-41
2022/03/08 03:35:22;;;;;;;;;;;;;;;31.64;50.99;100953.75;4977880;28;70099;-42
2022/03/08 03:37:52;;;;;;;;;;;;;;;31.64;51.13;100946.44;4980028;28;65529;-42
2022/03/08 03:40:21;;;;;;;;;;;;;;;31.68;50.96;100946.81;4965869;28;69293;-42
2022/03/08 03:42:51;;;;;;;;;;;;;;;31.71;51.33;100943.66;4959320;28;65931;-42
2022/03/08 03:45:21;;;;;;;;;;;;;;;31.73;50.90;100933.41;4970314;28;70061;-44
2022/03/08 03:47:50;;;;;;;;;;;;;;;31.74;51.03;100929.66;4986717;27;65642;-41
2022/03/08 03:50:20;;;;;;;;;;;;;;;31.76;50.79;100928.38;4972532;28;69752;-41
2022/03/08 03:52:50;;;;;;;;;;;;;;;31.80;51.65;100909.78;4978870;28;67106;-42
2022/03/08 03:55:20;;;;;;;;;;;;;;;31.82;51.49;100915.81;4966471;28;70112;-41
2022/03/08 03:57:49;;;;;;;;;;;;;;;31.85;51.77;100914.53;4980456;28;65820;-41
2022/03/08 04:00:19;;;;;;;;;;;;;;;31.87;51.27;100912.41;4988864;28;69135;-42
2022/03/08 04:02:49;;;;;;;;;;;;;;;31.89;51.20;100911.13;4962912;28;65928;-41
2022/03/08 04:05:19;;;;;;;;;;;;;;;31.92;51.55;100912.56;4969379;28;70058;-42
2022/03/08 04:07:49;;;;;;;;;;;;;;;31.93;51.23;100903.38;4971514;28;65542;-41
2022/03/08 04:10:18;;;;;;;;;;;;;;;31.95;51.02;100899.38;4968085;28;69766;-42
2022/03/08 04:12:48;;;;;;;;;;;;;;;31.96;50.89;100901.06;4972797;28;66824;-42
2022/03/08 04:15:18;;;;;;;;;;;;;;;31.98;51.14;100892.69;4975132;28;69802;-45
2022/03/08 04:17:48;;;;;;;;;;;;;;;32.01;50.51;100897.63;4962459;28;66748;-42
2022/03/08 04:20:18;;;;;;;;;;;;;;;32.02;50.48;100883.88;4964721;28;69209;-41
2022/03/08 04:22:47;;;;;;;;;;;;;;;32.03;50.45;100882.78;4977206;28;67095;-42
2022/03/08 04:25:17;;;;;;;;;;;;;;;32.06;50.15;100878.78;4975586;28;70103;-41
2022/03/08 04:27:47;;;;;;;;;;;;;;;32.07;49.95;100877.75;4973760;28;66056;-41
2022/03/08 04:30:17;;;;;;;;;;;;;;;32.10;49.23;100879.19;4973558;28;69979;-43
2022/03/08 04:32:50;;;;;;;;;;;;;;;32.12;49.00;100866.19;4974641;28;65387;-41
2022/03/08 04:35:20;;;;;;;;;;;;;;;32.13;49.16;100867.88;4980921;27;69959;-42
2022/03/08 04:37:50;;;;;;;;;;;;;;;32.13;49.20;100852.41;4976854;27;66071;-42
2022/03/08 04:40:20;;;;;;;;;;;;;;;32.16;49.29;100845.69;4959866;28;70268;-42
2022/03/08 04:42:52;;;;;;;;;;;;;;;32.17;49.02;100841.91;4971527;28;66871;-42
2022/03/08 04:45:22;;;;;;;;;;;;;;;32.17;49.03;100836.50;4977428;28;69455;-42
2022/03/08 04:47:52;;;;;;;;;;;;;;;32.18;48.79;100843.56;4975800;28;66694;-42
2022/03/08 04:50:22;;;;;;;;;;;;;;;32.17;48.79;100836.50;4976973;28;70888;-42
2022/03/08 04:52:52;;;;;;;;;;;;;;;32.17;48.37;100831.06;4972929;28;65477;-42
2022/03/08 04:55:21;;;;;;;;;;;;;;;32.17;48.49;100825.63;4964038;28;69449;-41
2022/03/08 04:57:58;;;;;;;;;;;;;;;32.17;48.71;100820.22;4975435;28;66674;-42
2022/03/08 05:00:28;;;;;;;;;;;;;;;32.18;48.62;100816.44;4977984;28;69491;-43
2022/03/08 05:02:58;;;;;;;;;;;;;;;32.17;48.36;100812.88;4975039;28;66226;-42
2022/03/08 05:05:31;;;;;;;;;;;;;;;32.18;48.47;100805.56;4967587;28;70974;-43
2022/03/08 05:08:03;;;;;;;;;;;;;;;32.19;48.23;100799.94;4976059;28;66947;-41
2022/03/08 05:10:33;;;;;;;;;;;;;;;32.19;48.54;100791.78;4975789;28;70026;-42
2022/03/08 05:13:03;;;;;;;;;;;;;;;32.21;48.28;100797.00;4977116;28;66366;-41
2022/03/08 05:15:33;;;;;;;;;;;;;;;32.22;48.62;100796.75;4976323;28;69216;-41
2022/03/08 05:18:03;;;;;;;;;;;;;;;32.24;48.49;100788.38;4977633;28;67093;-41
2022/03/08 05:20:33;;;;;;;;;;;;;;;32.26;48.50;100783.53;4976263;28;70277;-43
2022/03/08 05:23:03;;;;;;;;;;;;;;;32.27;48.28;100787.91;4977491;28;65968;-41
2022/03/08 05:25:32;;;;;;;;;;;;;;;32.29;48.43;100769.53;4969960;28;69409;-42
2022/03/08 05:28:02;;;;;;;;;;;;;;;32.30;48.62;100770.34;4970561;28;65584;-45
2022/03/08 05:30:32;;;;;;;;;;;;;;;32.32;48.48;100768.19;4970414;28;70718;-43
2022/03/08 05:33:02;;;;;;;;;;;;;;;32.33;48.13;100757.13;4971533;28;66499;-43
2022/03/08 05:35:32;;;;;;;;;;;;;;;32.36;48.34;100748.50;4976836;28;70077;-43
2022/03/08 05:38:02;;;;;;;;;;;;;;;32.38;48.72;100743.69;4965105;28;66422;-42
2022/03/08 05:40:32;;;;;;;;;;;;;;;32.39;48.42;100742.59;4969692;28;70580;-42
2022/03/08 05:43:02;;;;;;;;;;;;;;;32.39;48.61;100731.75;4977802;28;66887;-41
2022/03/08 05:45:33;;;;;;;;;;;;;;;32.42;48.41;100736.72;4978505;27;70609;-40
2022/03/08 05:48:02;;;;;;;;;;;;;;;32.43;48.11;100724.81;4966474;28;65968;-41
2022/03/08 05:50:32;;;;;;;;;;;;;;;32.45;48.63;100725.38;4979191;27;70032;-42
2022/03/08 05:53:02;;;;;;;;;;;;;;;32.47;48.52;100717.03;4962150;28;65885;-41
2022/03/08 05:55:32;;;;;;;;;;;;;;;32.49;48.07;100721.19;4990044;27;70404;-41
2022/03/08 05:58:01;;;;;;;;;;;;;;;32.51;48.30;100720.91;4977612;28;65405;-41
2022/03/08 06:00:31;;;;;;;;;;;;;;;32.54;48.10;100711.47;4976164;28;70675;-41
2022/03/08 06:03:01;;;;;;;;;;;;;;;32.57;47.71;100713.72;4979425;28;67140;-42
2022/03/08 06:05:31;;;;;;;;;;;;;;;32.59;47.45;100703.47;4978104;28;70673;-42
2022/03/08 06:08:01;;;;;;;;;;;;;;;32.60;47.62;100694.28;4977903;28;66491;-41
2022/03/08 06:10:32;;;;;;;;;;;;;;;32.63;47.25;100688.38;4976106;28;69346;-41
2022/03/08 06:13:02;;;;;;;;;;;;;;;32.63;47.53;100688.38;4977051;28;66618;-42
2022/03/08 06:15:32;;;;;;;;;;;;;;;32.65;47.49;100675.34;4976838;28;69812;-42
2022/03/08 06:18:02;;;;;;;;;;;;;;;32.66;47.47;100671.59;4976702;28;66972;-41
2022/03/08 06:20:31;;;;;;;;;;;;;;;32.68;47.07;100669.44;4977332;28;70134;-41
2022/03/08 06:23:01;;;;;;;;;;;;;;;32.71;47.12;100652.69;4974406;28;65883;-41
2022/03/08 06:25:31;;;;;;;;;;;;;;;32.74;47.12;100659.53;4977480;28;69379;-43
2022/03/08 06:28:01;;;;;;;;;;;;;;;32.75;47.04;100656.56;4977223;28;65093;-42
2022/03/08 06:30:31;;;;;;;;;;;;;;;32.79;47.08;100652.34;4975495;28;71075;-41
2022/03/08 06:33:01;;;;;;;;;;;;;;;32.81;47.01;100647.47;4977180;28;66331;-41
2022/03/08 06:35:31;;;;;;;;;;;;;;;32.83;46.75;100637.19;4979173;28;68901;-42
2022/03/08 06:38:01;;;;;;;;;;;;;;;32.87;46.94;100634.81;4976299;28;66611;-41
2022/03/08 06:40:32;;;;;;;;;;;;;;;32.87;46.83;100624.78;4977381;28;69344;-42
2022/03/08 06:43:01;;;;;;;;;;;;;;;32.91;46.99;100620.53;4965651;28;68236;-42
2022/03/08 06:45:31;;;;;;;;;;;;;;;32.92;46.76;100611.28;4977273;27;70606;-40
2022/03/08 06:48:01;;;;;;;;;;;;;;;32.95;46.50;100601.84;4978806;28;65012;-42
2022/03/08 06:50:31;;;;;;;;;;;;;;;32.99;46.54;100602.16;4975635;28;68709;-41
2022/03/08 06:53:00;;;;;;;;;;;;;;;33.03;46.54;100596.06;4976265;28;66879;-41
2022/03/08 06:55:30;;;;;;;;;;;;;;;33.06;46.50;100600.19;4975447;28;70547;-42
2022/03/08 06:58:00;;;;;;;;;;;;;;;33.08;46.44;100587.19;4960724;28;65263;-42
2022/03/08 07:00:30;;;;;;;;;;;;;;;33.10;46.44;100590.50;4976466;28;69303;-41
2022/03/08 07:03:00;;;;;;;;;;;;;;;33.13;46.11;100587.28;4976042;28;65646;-43
2022/03/08 07:05:30;;;;;;;;;;;;;;;33.16;46.07;100586.78;4978105;28;70058;-40
2022/03/08 07:08:00;;;;;;;;;;;;;;;33.20;44.70;100579.78;4973630;28;65437;-43
2022/03/08 07:10:30;;;;;;;;;;;;;;;33.25;45.11;100577.19;4969679;28;70755;-42
2022/03/08 07:13:00;;;;;;;;;;;;;;;33.26;44.95;100573.38;4975168;28;66384;-42
2022/03/08 07:15:30;;;;;;;;;;;;;;;33.30;45.31;100576.44;4975063;28;69954;-41
2022/03/08 07:18:00;;;;;;;;;;;;;;;33.33;45.20;100574.06;4984236;28;66153;-42
2022/03/08 07:20:29;;;;;;;;;;;;;;;33.36;45.11;100562.69;4979111;28;68992;-41
2022/03/08 07:22:59;;;;;;;;;;;;;;;33.40;45.12;100570.34;4976260;28;66816;-41
2022/03/08 07:25:29;;;;;;;;;;;;;;;33.44;45.01;100557.94;4977644;28;70134;-41
2022/03/08 07:27:59;;;;;;;;;;;;;;;33.48;45.09;100553.66;4976199;28;66216;-41
2022/03/08 07:30:49;;;;;;;;;;;;;;;33.53;45.19;100556.47;4976481;28;69924;-43
2022/03/08 07:33:19;;;;;;;;;;;;;;;33.54;45.04;100548.09;4979949;28;67101;-42
2022/03/08 07:35:48;;;;;;;;;;;;;;;33.57;44.95;100544.03;4963251;28;69620;-41
2022/03/08 07:38:18;;;;;;;;;;;;;;;33.60;44.98;100540.84;4975263;28;65053;-42
2022/03/08 07:40:48;;;;;;;;;;;;;;;33.64;45.02;100541.97;4976854;28;69784;-42
2022/03/08 07:43:18;;;;;;;;;;;;;;;33.67;44.73;100541.50;4968382;28;65527;-42
2022/03/08 07:45:48;;;;;;;;;;;;;;;33.70;44.83;100530.09;4972956;28;70463;-42
2022/03/08 07:48:19;;;;;;;;;;;;;;;33.76;44.62;100534.56;4977849;28;65640;-42
2022/03/08 07:50:49;;;;;;;;;;;;;;;33.81;44.50;100531.91;4977539;28;69513;-42
2022/03/08 07:53:18;;;;;;;;;;;;;;;33.87;43.49;100523.84;4971617;28;65355;-40
2022/03/08 07:55:48;;;;;;;;;;;;;;;33.89;43.22;100527.94;4973295;28;70894;-40
2022/03/08 07:58:21;;;;;;;;;;;;;;;34.00;43.17;100529.75;4988959;27;66239;-41
2022/03/08 08:00:51;;;;;;;;;;;;;;;34.09;42.86;100522.00;4978978;28;70006;-42
2022/03/08 08:03:22;;;;;;;;;;;;;;;34.12;42.02;100526.94;4978964;28;66218;-42
2022/03/08 08:05:51;;;;;;;;;;;;;;;34.16;41.80;100522.66;4976738;28;70919;-42
2022/03/08 08:08:21;;;;;;;;;;;;;;;34.20;41.83;100523.78;4966966;28;65751;-42
2022/03/08 08:10:51;;;;;;;;;;;;;;;34.21;42.13;100511.84;4991438;28;69647;-42
2022/03/08 08:13:20;;;;;;;;;;;;;;;34.24;42.14;100511.34;4959917;28;65453;-42
2022/03/08 08:15:50;;;;;;;;;;;;;;;34.30;42.35;100514.09;4972481;28;69283;-42
2022/03/08 08:18:20;;;;;;;;;;;;;;;34.31;42.25;100521.22;4982233;28;66838;-42
2022/03/08 08:20:51;;;;;;;;;;;;;;;34.35;42.36;100520.47;4980282;28;70267;-42
2022/03/08 08:23:21;;;;;;;;;;;;;;;34.39;42.49;100518.06;4982612;28;66531;-42
2022/03/08 08:25:51;;;;;;;;;;;;;;;34.42;42.42;100512.91;4970405;28;69274;-42
2022/03/08 08:28:20;;;;;;;;;;;;;;;34.45;42.60;100503.41;4975963;28;65555;-42
2022/03/08 08:30:50;;;;;;;;;;;;;;;34.50;42.55;100511.66;4980129;28;69688;-42
2022/03/08 08:33:20;;;;;;;;;;;;;;;34.54;42.81;100512.78;4981311;28;65696;-41
2022/03/08 08:35:50;;;;;;;;;;;;;;;34.55;42.96;100509.00;4963963;28;69336;-42
2022/03/08 08:38:20;;;;;;;;;;;;;;;34.59;42.75;100515.59;4979133;28;66465;-42
2022/03/08 08:40:49;;;;;;;;;;;;;;;34.62;42.92;100520.53;4970544;28;69299;-41
2022/03/08 08:43:19;;;;;;;;;;;;;;;34.64;42.58;100523.84;4967427;28;67080;-42
2022/03/08 08:45:52;;;;;;;;;;;;;;;34.67;42.67;100534.22;4975246;28;70077;-41
2022/03/08 08:48:22;;;;;;;;;;;;;;;34.70;42.97;100533.72;4976059;28;66028;-42
2022/03/08 08:50:52;;;;;;;;;;;;;;;34.73;42.82;100537.00;4976672;28;70276;-41
2022/03/08 08:53:23;;;;;;;;;;;;;;;34.74;43.02;100531.28;4985108;28;64742;-42
2022/03/08 08:55:52;;;;;;;;;;;;;;;34.78;43.05;100539.81;4979868;28;70588;-42
2022/03/08 08:58:22;;;;;;;;;;;;;;;34.79;43.40;100546.88;4967262;28;66795;-41
2022/03/08 09:00:52;;;;;;;;;;;;;;;34.82;43.16;100551.81;4977892;28;69956;-42
2022/03/08 09:03:23;;;;;;;;;;;;;;;34.86;43.19;100552.97;4959197;28;66207;-43
2022/03/08 09:05:53;;;;;;;;;;;;;;;34.87;43.33;100549.97;4973274;28;71383;-42
2022/03/08 09:08:26;;;;;;;;;;;;;;;34.89;43.43;100560.63;4958582;28;65647;-41
2022/03/08 09:11:00;;;;;;;;;;;;;;;34.91;43.71;100558.47;4970945;28;70202;-41
2022/03/08 09:13:30;;;;;;;;;;;;;;;34.93;43.53;100553.56;4964790;28;66268;-43
2022/03/08 09:16:00;;;;;;;;;;;;;;;34.94;43.75;100560.69;4978079;28;69976;-41
2022/03/08 09:18:30;;;;;;;;;;;;;;;34.96;43.72;100566.69;4982590;28;65945;-42
2022/03/08 09:21:00;;;;;;;;;;;;;;;34.98;43.90;100566.44;4985732;28;70529;-42
2022/03/08 09:23:30;;;;;;;;;;;;;;;35.00;43.66;100565.13;4991698;28;66611;-43
2022/03/08 09:25:59;;;;;;;;;;;;;;;35.01;44.24;100565.94;4976505;28;69309;-41
2022/03/08 09:28:30;;;;;;;;;;;;;;;35.01;44.16;100566.75;4978147;28;66868;-41
2022/03/08 09:30:59;;;;;;;;;;;;;;;35.02;44.21;100568.41;4978020;28;68852;-41
2022/03/08 09:33:30;;;;;;;;;;;;;;;35.03;44.03;100575.50;4976737;28;66685;-40
2022/03/08 09:36:00;;;;;;;;;;;;;;;35.02;44.11;100592.94;4966794;28;69389;-41
2022/03/08 09:38:30;;;;;;;;;;;;;;;35.02;44.60;100595.69;4991155;27;66841;-42
2022/03/08 09:41:01;;;;;;;;;;;;;;;35.03;44.71;100593.78;4968942;28;69306;-42
2022/03/08 09:43:35;;;;;;;;;;;;;;;35.03;44.30;100596.50;4975673;28;65562;-42
2022/03/08 09:46:05;;;;;;;;;;;;;;;35.03;44.80;100599.22;4976118;28;70334;-42
2022/03/08 09:48:36;;;;;;;;;;;;;;;35.02;44.45;100603.84;4976868;28;65719;-41
2022/03/08 09:51:06;;;;;;;;;;;;;;;35.02;44.91;100605.72;4962815;28;70027;-42
2022/03/08 09:53:36;;;;;;;;;;;;;;;35.00;44.72;100603.28;4967187;28;65619;-48
2022/03/08 09:56:06;;;;;;;;;;;;;;;35.00;45.14;100607.91;4961395;28;70412;-42
2022/03/08 09:58:37;;;;;;;;;;;;;;;35.00;44.75;100611.44;4967561;28;66142;-42
2022/03/08 10:01:06;;;;;;;;;;;;;;;35.00;45.34;100619.63;4959295;28;70376;-41
2022/03/08 10:03:40;;;;;;;;;;;;;;;34.99;45.10;100617.97;4977782;28;67303;-42
2022/03/08 10:06:10;;;;;;;;;;;;;;;34.98;45.19;100624.50;4982928;28;70154;-43
2022/03/08 10:08:40;;;;;;;;;;;;;;;34.97;45.62;100630.22;4974419;28;65527;-43
2022/03/08 10:11:14;;;;;;;;;;;;;;;34.96;45.36;100640.28;4981529;27;70643;-43
2022/03/08 10:13:49;;;;;;;;;;;;;;;34.94;45.54;100642.47;4974228;28;66195;-41
2022/03/08 10:16:23;;;;;;;;;;;;;;;34.93;45.63;100640.78;4977527;27;70597;-43
2022/03/08 10:18:55;;;;;;;;;;;;;;;34.91;46.16;100648.41;4980062;28;66148;-43
2022/03/08 10:21:29;;;;;;;;;;;;;;;34.87;46.38;100650.81;4972716;28;69895;-43
2022/03/08 10:24:19;;;;;;;;;;;;;;;34.86;46.35;100653.81;4958426;28;65617;-43
2022/03/08 10:26:50;;;;;;;;;;;;;;;34.83;46.30;100657.03;4974920;28;69188;-42
2022/03/08 10:29:28;;;;;;;;;;;;;;;34.81;46.37;100667.34;4959004;28;66308;-42
2022/03/08 10:32:08;;;;;;;;;;;;;;;34.78;46.57;100671.41;4976685;28;69053;-41
2022/03/08 10:34:39;;;;;;;;;;;;;;;34.75;46.55;100671.09;4975519;28;66858;-43
2022/03/08 10:37:19;;;;;;;;;;;;;;;34.74;46.76;100669.44;4975692;28;62606;-42
2022/03/08 10:39:54;;;;;;;;;;;;;;;34.71;46.64;100676.19;4973720;28;65730;-42
2022/03/08 10:42:24;;;;;;;;;;;;;;;34.68;46.52;100680.25;4973768;28;70526;-42
2022/03/08 10:45:01;;;;;;;;;;;;;;;34.66;46.71;100689.78;4976620;28;67125;-43
2022/03/08 10:47:44;;;;;;;;;;;;;;;34.63;47.00;100698.41;4978542;28;69828;-42
2022/03/08 10:50:16;;;;;;;;;;;;;;;34.63;47.10;100698.41;4986488;28;65927;-42
2022/03/08 10:52:47;;;;;;;;;;;;;;;34.61;47.14;100704.13;4976214;28;69970;-43
2022/03/08 10:55:19;;;;;;;;;;;;;;;34.57;47.38;100702.97;4979066;28;66079;-41
2022/03/08 10:57:54;;;;;;;;;;;;;;;34.54;47.23;100708.88;4982236;28;70330;-42
2022/03/08 11:00:25;;;;;;;;;;;;;;;34.53;47.54;100711.88;4987693;28;66061;-41
2022/03/08 11:03:03;;;;;;;;;;;;;;;34.50;47.31;100723.28;4977621;28;69178;-43
2022/03/08 11:05:37;;;;;;;;;;;;;;;34.47;47.33;100716.44;4979365;28;65794;-42
2022/03/08 11:08:08;;;;;;;;;;;;;;;34.43;47.43;100723.44;4983000;28;69933;-43
2022/03/08 11:10:38;;;;;;;;;;;;;;;34.41;48.17;100725.59;4976747;28;65559;-41
2022/03/08 11:13:08;;;;;;;;;;;;;;;34.37;48.96;100736.13;4978003;28;69365;-41
2022/03/08 11:15:39;;;;;;;;;;;;;;;34.35;48.70;100742.91;4979046;27;65953;-41
2022/03/08 11:18:09;;;;;;;;;;;;;;;34.30;48.80;100740.94;4976851;28;69510;-39
2022/03/08 11:20:39;;;;;;;;;;;;;;;33.97;49.92;100749.88;4976069;28;65702;-40
2022/03/08 11:23:10;;;;;;;;;;;;;;;33.68;50.96;100751.75;4977661;28;70252;-40
2022/03/08 11:25:44;;;;;;;;;;;;;;;33.50;51.25;100759.00;4973089;28;66330;-41
2022/03/08 11:28:19;;;;;;;;;;;;;;;33.28;52.15;100758.81;4978264;28;69397;-40
2022/03/08 11:30:50;;;;;;;;;;;;;;;33.16;52.51;100760.75;4979091;28;66139;-40
2022/03/08 11:33:20;;;;;;;;;;;;;;;33.07;52.84;100768.44;4976613;28;69144;-40
2022/03/08 11:35:57;;;;;;;;;;;;;;;33.00;53.16;100785.94;4976522;28;66447;-41
2022/03/08 11:38:27;;;;;;;;;;;;;;;32.94;53.30;100785.78;4977463;28;71065;-39
2022/03/08 11:40:58;;;;;;;;;;;;;;;32.88;53.64;100789.44;4977474;28;67422;-40
2022/03/08 11:43:44;;;;;;;;;;;;;;;32.86;53.99;100796.19;4979022;27;70346;-40
2022/03/08 11:46:16;;;;;;;;;;;;;;;32.81;54.06;100794.16;4978507;28;65583;-41
2022/03/08 11:48:53;;;;;;;;;;;;;;;32.76;54.13;100791.31;4978206;28;70272;-40
2022/03/08 11:51:23;;;;;;;;;;;;;;;32.75;54.93;100794.28;4977760;28;66431;-39
2022/03/08 11:54:00;;;;;;;;;;;;;;;32.69;55.35;100801.47;4976381;28;69000;-39
2022/03/08 11:56:42;;;;;;;;;;;;;;;32.63;55.53;100805.13;4978257;28;66335;-42
2022/03/08 11:59:12;;;;;;;;;;;;;;;32.61;55.28;100809.97;4972117;28;70269;-41
2022/03/08 12:01:42;;;;;;;;;;;;;;;32.59;55.35;100802.03;4976452;28;65207;-41
2022/03/08 12:04:13;;;;;;;;;;;;;;;32.55;55.25;100795.44;4976170;28;69314;-41
2022/03/08 12:06:53;;;;;;;;;;;;;;;32.54;54.83;100809.25;4976301;27;65723;-40
2022/03/08 12:09:25;;;;;;;;;;;;;;;32.51;55.15;100809.72;4965695;28;71049;-41
2022/03/08 12:11:59;;;;;;;;;;;;;;;32.49;54.82;100815.38;4973053;28;66498;-41
2022/03/08 12:14:29;;;;;;;;;;;;;;;32.45;54.91;100809.53;4973590;28;69156;-40
2022/03/08 12:17:07;;;;;;;;;;;;;;;32.45;54.83;100816.88;4972212;28;66366;-40
2022/03/08 12:19:47;;;;;;;;;;;;;;;32.40;54.80;100814.88;4971874;28;69176;-41
2022/03/08 12:22:18;;;;;;;;;;;;;;;32.38;54.96;100811.53;4972877;28;65554;-42
2022/03/08 12:24:59;;;;;;;;;;;;;;;32.35;55.15;100816.63;4973316;28;70819;-41
2022/03/08 12:27:47;;;;;;;;;;;;;;;32.27;56.20;100821.31;4973818;28;66355;-41
2022/03/08 12:30:17;;;;;;;;;;;;;;;32.30;56.31;100825.44;4976614;28;69367;-41
2022/03/08 12:32:47;;;;;;;;;;;;;;;32.30;56.29;100836.31;4978836;27;66474;-41
2022/03/08 12:35:21;;;;;;;;;;;;;;;32.25;56.47;100837.00;4975865;27;70157;-41
2022/03/08 12:37:55;;;;;;;;;;;;;;;32.35;56.53;100839.16;4973464;28;66471;-42
2022/03/08 12:40:26;;;;;;;;;;;;;;;32.37;56.81;100845.16;4978455;28;70411;-41
2022/03/08 12:42:56;;;;;;;;;;;;;;;32.25;54.49;100847.03;4976933;28;66659;-41
2022/03/08 12:45:31;;;;;;;;;;;;;;;32.04;53.40;100841.06;4977484;28;69456;-41
2022/03/08 12:48:01;;;;;;;;;;;;;;;31.91;52.38;100854.78;4972503;28;67172;-42
2022/03/08 12:50:32;;;;;;;;;;;;;;;31.78;51.80;100854.91;4973152;28;69418;-41
2022/03/08 12:53:05;;;;;;;;;;;;;;;31.68;51.40;100849.19;4974956;28;65909;-41
2022/03/08 12:55:35;;;;;;;;;;;;;;;31.59;50.13;100860.34;4975003;28;69866;-42